Time;durP1;ratioP1;P1;durP2;ratioP2;P2;SDS_P1;SDS_P2;PMS_P1;PMS_P2;Temp;Humidity;BMP_temperature;BMP_pressure;BME280_temperature;BME280_humidity;BME280_pressure;Samples;Min_cycle;Max_cycle;Signal;HPM_P1;HPM_P2
2022/08/13 00:01:56;;;;;;;4.47;2.33;;;20.00;99.90;;;;;;5066805;28;20036;-75
2022/08/13 00:04:26;;;;;;;3.95;2.50;;;19.90;99.90;;;;;;5066484;28;20036;-75
2022/08/13 00:09:22;;;;;;;11.80;2.80;;;19.70;99.90;;;;;;5079824;28;20044;-75
2022/08/13 00:14:34;;;;;;;5.20;2.40;;;19.70;99.90;;;;;;5082232;28;20405;-74
2022/08/13 00:17:01;;;;;;;7.97;2.45;;;19.60;99.90;;;;;;5078625;28;20063;-74
2022/08/13 00:19:30;;;;;;;12.30;2.58;;;19.60;99.90;;;;;;5061303;28;20051;-74
2022/08/13 00:21:58;;;;;;;5.47;2.58;;;19.60;99.90;;;;;;5083258;28;20050;-75
2022/08/13 00:24:24;;;;;;;4.18;2.65;;;19.50;99.90;;;;;;5083909;28;20142;-74
2022/08/13 00:26:50;;;;;;;3.70;2.38;;;19.40;99.90;;;;;;5059531;28;20036;-75
2022/08/13 00:29:15;;;;;;;11.65;2.80;;;19.40;99.90;;;;;;5082682;28;20556;-75
2022/08/13 00:31:44;;;;;;;4.75;2.50;;;19.30;99.90;;;;;;5062040;28;20063;-75
2022/08/13 00:34:10;;;;;;;5.82;2.60;;;19.30;99.90;;;;;;5061527;28;20028;-75
2022/08/13 00:36:36;;;;;;;11.18;2.75;;;19.20;99.90;;;;;;5065581;28;20055;-75
2022/08/13 00:39:07;;;;;;;4.22;2.55;;;19.20;99.90;;;;;;5065640;28;20036;-75
2022/08/13 00:41:38;;;;;;;8.18;2.70;;;19.10;99.90;;;;;;5065246;28;20052;-74
2022/08/13 00:44:08;;;;;;;6.53;2.85;;;19.10;99.90;;;;;;5071319;28;20044;-75
2022/08/13 00:46:34;;;;;;;7.75;2.47;;;19.10;99.90;;;;;;5068736;28;20064;-75
2022/08/13 00:49:03;;;;;;;9.07;2.95;;;19.10;99.90;;;;;;5085654;28;20783;-74
2022/08/13 00:51:33;;;;;;;4.03;2.83;;;19.10;99.90;;;;;;5080558;28;20450;-74
2022/08/13 00:54:02;;;;;;;7.80;2.97;;;19.10;99.90;;;;;;5073593;28;20080;-75
2022/08/13 00:56:34;;;;;;;6.60;2.85;;;19.10;99.90;;;;;;5081319;28;20048;-74
2022/08/13 00:59:13;;;;;;;6.40;3.22;;;19.10;99.90;;;;;;5067157;28;20434;-74
2022/08/13 01:01:45;;;;;;;4.53;2.88;;;18.90;99.90;;;;;;5085664;28;20036;-76
2022/08/13 01:04:11;;;;;;;5.32;3.10;;;18.80;99.90;;;;;;5082983;28;20086;-76
2022/08/13 01:06:37;;;;;;;7.07;3.17;;;18.80;99.90;;;;;;5065322;28;20048;-75
2022/08/13 01:09:05;;;;;;;4.13;2.83;;;18.70;99.90;;;;;;5078210;28;20036;-74
2022/08/13 01:11:34;;;;;;;8.07;3.28;;;18.70;99.90;;;;;;5082236;28;20036;-75
2022/08/13 01:14:07;;;;;;;7.32;3.13;;;18.60;99.90;;;;;;5051412;28;20135;-75
2022/08/13 01:16:36;;;;;;;7.70;3.33;;;18.60;99.90;;;;;;5080991;28;20036;-75
2022/08/13 01:19:07;;;;;;;8.43;2.90;;;18.60;99.90;;;;;;5084724;28;20544;-75
2022/08/13 01:21:39;;;;;;;7.13;3.00;;;18.50;99.90;;;;;;5084738;28;20044;-75
2022/08/13 01:24:07;;;;;;;10.15;3.13;;;18.50;99.90;;;;;;5079649;28;20410;-75
2022/08/13 01:26:33;;;;;;;6.97;3.00;;;18.50;99.90;;;;;;5078609;28;20044;-74
2022/08/13 01:29:04;;;;;;;8.00;3.25;;;18.40;99.90;;;;;;5085343;28;20048;-76
2022/08/13 01:31:34;;;;;;;5.55;3.08;;;18.40;99.90;;;;;;5079840;28;20044;-75
2022/08/13 01:34:04;;;;;;;6.30;3.10;;;18.40;99.90;;;;;;5067000;28;20355;-75
2022/08/13 01:36:30;;;;;;;8.32;3.22;;;18.30;99.90;;;;;;5078950;28;20063;-75
2022/08/13 01:38:57;;;;;;;6.97;3.40;;;18.40;99.90;;;;;;5068632;28;20059;-75
2022/08/13 01:41:25;;;;;;;7.07;3.45;;;18.30;99.90;;;;;;5074566;28;20048;-75
2022/08/13 01:43:52;;;;;;;8.57;3.47;;;18.30;99.90;;;;;;5064630;28;20066;-75
2022/08/13 01:46:18;;;;;;;9.98;4.00;;;18.30;99.90;;;;;;5058061;28;20044;-74
2022/08/13 01:51:33;;;;;;;10.82;4.13;;;18.30;99.90;;;;;;5082867;28;20104;-76
2022/08/13 01:53:59;;;;;;;7.65;3.75;;;18.30;99.90;;;;;;5079102;28;20040;-75
2022/08/13 01:56:27;;;;;;;12.73;3.75;;;18.40;99.90;;;;;;5050498;28;20051;-75
2022/08/13 01:58:55;;;;;;;7.47;4.18;;;18.40;99.90;;;;;;5084309;28;20067;-74
2022/08/13 02:01:26;;;;;;;8.07;3.78;;;18.40;99.90;;;;;;5063623;28;20028;-75
2022/08/13 02:03:56;;;;;;;9.95;3.90;;;18.50;99.90;;;;;;5079527;28;20502;-75
2022/08/13 02:06:34;;;;;;;10.10;3.75;;;18.50;99.90;;;;;;5068340;28;20047;-74
2022/08/13 02:09:03;;;;;;;6.97;3.67;;;18.50;99.90;;;;;;5087225;28;20040;-75
2022/08/13 02:11:33;;;;;;;9.90;3.80;;;18.50;99.90;;;;;;5093454;28;20056;-73
2022/08/13 02:14:04;;;;;;;4.55;3.45;;;18.50;99.90;;;;;;5092736;28;20083;-73
2022/08/13 02:16:37;;;;;;;8.73;3.42;;;18.50;99.90;;;;;;5066495;28;20043;-75
2022/08/13 02:19:06;;;;;;;7.82;3.65;;;18.50;99.90;;;;;;5087096;28;20040;-73
2022/08/13 02:21:37;;;;;;;8.60;3.75;;;18.40;99.90;;;;;;5063185;28;20075;-76
2022/08/13 02:24:05;;;;;;;9.45;3.50;;;18.40;99.90;;;;;;5088365;28;20032;-75
2022/08/13 02:26:32;;;;;;;9.57;3.50;;;18.40;99.90;;;;;;5085553;28;20052;-73
2022/08/13 02:29:04;;;;;;;6.95;3.25;;;18.40;99.90;;;;;;5071142;28;20036;-74
2022/08/13 02:31:31;;;;;;;8.27;3.40;;;18.30;99.90;;;;;;5086221;28;20467;-74
2022/08/13 02:33:57;;;;;;;6.25;3.10;;;18.30;99.90;;;;;;5087450;28;20043;-74
2022/08/13 02:36:24;;;;;;;7.55;3.70;;;18.30;99.90;;;;;;5073539;28;20379;-74
2022/08/13 02:38:54;;;;;;;4.30;3.05;;;18.20;99.90;;;;;;5074042;28;20055;-75
2022/08/13 02:41:39;;;;;;;11.07;3.63;;;18.20;99.90;;;;;;5082777;28;20047;-75
2022/08/13 02:44:14;;;;;;;7.80;3.65;;;18.20;99.90;;;;;;5087977;28;20075;-75
2022/08/13 02:46:47;;;;;;;5.93;3.45;;;18.20;99.90;;;;;;5086280;28;20043;-74
2022/08/13 02:49:13;;;;;;;10.10;3.50;;;18.10;99.90;;;;;;5064653;28;20048;-75
2022/08/13 02:51:38;;;;;;;10.32;3.65;;;18.10;99.90;;;;;;5081573;28;20044;-75
2022/08/13 02:54:06;;;;;;;6.85;3.20;;;18.10;99.90;;;;;;5067252;28;20036;-73
2022/08/13 02:56:34;;;;;;;6.18;3.25;;;18.10;99.90;;;;;;5084858;28;20083;-74
2022/08/13 02:59:00;;;;;;;5.15;3.53;;;18.00;99.90;;;;;;5084573;28;20425;-75
2022/08/13 03:01:26;;;;;;;6.18;3.60;;;18.00;99.90;;;;;;5079340;28;20173;-75
2022/08/13 03:03:53;;;;;;;7.72;3.10;;;18.00;99.90;;;;;;5061105;28;20161;-75
2022/08/13 03:06:19;;;;;;;5.80;3.60;;;18.00;99.90;;;;;;5069191;28;20055;-74
2022/08/13 03:08:49;;;;;;;8.25;3.53;;;17.90;99.90;;;;;;5080362;28;20173;-75
2022/08/13 03:11:15;;;;;;;9.25;3.60;;;18.00;99.90;;;;;;5081523;28;20036;-76
2022/08/13 03:13:47;;;;;;;13.50;3.33;;;18.00;99.90;;;;;;5085589;28;20051;-74
2022/08/13 03:16:16;;;;;;;8.25;3.60;;;18.00;99.90;;;;;;5081275;28;20189;-74
2022/08/13 03:18:42;;;;;;;13.18;3.47;;;17.90;99.90;;;;;;5086087;28;20098;-76
2022/08/13 03:21:08;;;;;;;6.85;3.30;;;17.90;99.90;;;;;;5083109;28;20960;-75
2022/08/13 03:23:33;;;;;;;5.78;3.05;;;17.90;99.90;;;;;;5087089;28;20538;-73
2022/08/13 03:25:59;;;;;;;8.07;3.10;;;17.90;99.90;;;;;;5067113;28;20048;-74
2022/08/13 03:28:25;;;;;;;7.32;3.20;;;17.90;99.90;;;;;;5067524;28;20067;-75
2022/08/13 03:30:51;;;;;;;5.57;3.28;;;17.90;99.90;;;;;;5088356;28;20394;-74
2022/08/13 03:33:17;;;;;;;7.40;3.20;;;17.90;99.90;;;;;;5071973;28;20460;-74
2022/08/13 03:35:43;;;;;;;6.00;3.22;;;17.90;99.90;;;;;;5072358;28;20408;-74
2022/08/13 03:38:12;;;;;;;6.60;3.30;;;17.90;99.90;;;;;;5100500;27;20047;-75
2022/08/13 03:43:23;;;;;;;6.03;3.10;;;17.90;99.90;;;;;;5085852;28;20151;-74
2022/08/13 03:45:49;;;;;;;8.85;2.92;;;17.90;99.90;;;;;;5084012;28;20059;-74
2022/08/13 03:48:16;;;;;;;5.53;3.40;;;17.80;99.90;;;;;;5060102;28;20036;-75
2022/08/13 03:50:44;;;;;;;11.80;3.28;;;17.80;99.90;;;;;;5064683;28;20039;-75
2022/08/13 03:53:10;;;;;;;6.45;3.60;;;17.80;99.90;;;;;;5080485;27;20036;-74
2022/08/13 03:55:39;;;;;;;5.65;3.08;;;17.80;99.90;;;;;;5071902;28;20197;-76
2022/08/13 03:58:10;;;;;;;5.72;3.38;;;17.70;99.90;;;;;;5084519;28;20122;-75
2022/08/13 04:00:47;;;;;;;6.13;3.35;;;17.70;99.90;;;;;;5093457;28;20028;-75
2022/08/13 04:03:22;;;;;;;4.88;3.03;;;17.80;99.90;;;;;;5084083;28;20059;-75
2022/08/13 04:05:53;;;;;;;4.18;3.28;;;17.80;99.90;;;;;;5068508;28;20113;-75
2022/08/13 04:08:20;;;;;;;7.80;3.40;;;17.80;99.90;;;;;;5084474;28;20043;-75
2022/08/13 04:10:47;;;;;;;11.70;3.70;;;17.70;99.90;;;;;;5061370;28;20036;-75
2022/08/13 04:13:15;;;;;;;9.38;3.30;;;17.70;99.90;;;;;;5059293;28;20052;-74
2022/08/13 04:15:42;;;;;;;10.30;3.50;;;17.70;99.90;;;;;;5066982;28;20360;-75
2022/08/13 04:18:11;;;;;;;5.95;3.60;;;17.70;99.90;;;;;;5085254;28;20063;-74
2022/08/13 04:20:41;;;;;;;6.28;3.50;;;17.70;99.90;;;;;;5069630;28;20048;-74
2022/08/13 04:23:14;;;;;;;7.07;3.50;;;17.60;99.90;;;;;;5085934;28;20139;-75
2022/08/13 04:25:41;;;;;;;18.40;3.50;;;17.60;99.90;;;;;;5082366;28;20052;-75
2022/08/13 04:28:07;;;;;;;10.65;3.45;;;17.60;99.90;;;;;;5083970;28;20048;-74
2022/08/13 04:30:35;;;;;;;7.85;3.78;;;17.70;99.90;;;;;;5070897;28;20040;-75
2022/08/13 04:33:03;;;;;;;7.57;3.75;;;17.70;99.90;;;;;;5081748;28;20044;-76
2022/08/13 04:35:29;;;;;;;6.85;3.45;;;17.70;99.90;;;;;;5051484;28;20048;-75
2022/08/13 04:37:57;;;;;;;7.32;3.53;;;17.70;99.90;;;;;;5084495;28;20036;-74
2022/08/13 04:40:23;;;;;;;7.57;3.40;;;17.70;99.90;;;;;;5077918;28;20133;-75
2022/08/13 04:42:53;;;;;;;8.63;3.53;;;17.70;99.90;;;;;;5084252;28;20059;-76
2022/08/13 04:45:23;;;;;;;6.40;3.17;;;17.70;99.90;;;;;;5068889;28;20129;-74
2022/08/13 04:47:48;;;;;;;9.93;3.50;;;17.70;99.90;;;;;;5080106;28;20132;-75
2022/08/13 04:50:14;;;;;;;10.57;3.38;;;17.80;99.90;;;;;;5087106;28;20364;-75
2022/08/13 04:52:40;;;;;;;5.22;3.40;;;17.80;99.90;;;;;;5086185;28;20479;-73
2022/08/13 04:55:11;;;;;;;8.32;3.33;;;17.90;99.90;;;;;;5060103;28;20567;-74
2022/08/13 04:57:38;;;;;;;9.88;3.20;;;17.90;99.90;;;;;;5079609;28;20055;-75
2022/08/13 05:00:06;;;;;;;6.80;3.28;;;18.10;99.90;;;;;;5074838;28;20048;-75
2022/08/13 05:02:40;;;;;;;13.25;3.50;;;18.20;99.90;;;;;;5066873;28;20043;-75
2022/08/13 05:05:06;;;;;;;5.27;3.10;;;18.30;99.90;;;;;;5079399;28;20044;-75
2022/08/13 05:07:32;;;;;;;7.80;2.88;;;18.40;99.90;;;;;;5079822;28;20052;-75
2022/08/13 05:09:58;;;;;;;7.97;3.20;;;18.50;99.90;;;;;;5079860;28;20118;-74
2022/08/13 05:12:24;;;;;;;11.52;3.10;;;18.50;99.90;;;;;;5075491;28;20105;-73
2022/08/13 05:14:50;;;;;;;9.20;3.05;;;18.50;99.90;;;;;;5081755;28;20101;-74
2022/08/13 05:17:15;;;;;;;7.75;3.17;;;18.50;99.90;;;;;;5058311;28;20040;-74
2022/08/13 05:19:42;;;;;;;5.22;3.30;;;18.60;99.90;;;;;;5082228;28;20423;-75
2022/08/13 05:22:10;;;;;;;9.93;3.80;;;18.60;99.90;;;;;;5094032;27;20127;-75
2022/08/13 05:24:37;;;;;;;10.13;3.13;;;18.70;99.90;;;;;;5078516;28;20044;-74
2022/08/13 05:27:03;;;;;;;9.98;3.33;;;18.70;99.90;;;;;;5074794;28;20048;-74
2022/08/13 05:29:29;;;;;;;6.22;3.05;;;18.80;99.90;;;;;;5082931;28;20051;-74
2022/08/13 05:31:55;;;;;;;4.75;2.70;;;18.80;99.90;;;;;;5080307;28;20044;-74
2022/08/13 05:34:20;;;;;;;5.78;2.80;;;18.90;99.90;;;;;;5066698;28;20036;-75
2022/08/13 05:36:46;;;;;;;7.82;2.92;;;19.00;99.90;;;;;;5062618;28;20082;-74
2022/08/13 05:39:13;;;;;;;9.23;3.20;;;19.10;99.90;;;;;;5077518;28;20043;-75
2022/08/13 05:41:41;;;;;;;9.02;3.10;;;19.10;99.90;;;;;;5082321;28;20143;-74
2022/08/13 05:44:09;;;;;;;9.35;2.97;;;19.20;99.90;;;;;;5050221;28;20897;-72
2022/08/13 05:46:34;;;;;;;6.00;2.92;;;19.30;99.90;;;;;;5080130;28;20051;-73
2022/08/13 05:49:00;;;;;;;8.48;3.55;;;19.50;99.90;;;;;;5064982;28;20028;-73
2022/08/13 05:51:29;;;;;;;7.60;3.17;;;19.60;99.90;;;;;;5081761;28;20097;-74
2022/08/13 05:53:59;;;;;;;5.97;3.03;;;19.60;99.90;;;;;;5068472;28;20051;-73
2022/08/13 05:56:26;;;;;;;5.07;2.83;;;19.70;99.90;;;;;;5061141;28;20044;-73
2022/08/13 05:58:52;;;;;;;4.95;3.00;;;19.70;99.90;;;;;;5065456;28;20042;-74
2022/08/13 06:04:14;;;;;;;9.60;3.15;;;19.90;99.90;;;;;;5084538;28;20036;-76
2022/08/13 06:06:42;;;;;;;7.07;3.13;;;20.00;99.90;;;;;;5088137;28;20128;-74
2022/08/13 06:09:08;;;;;;;5.30;2.97;;;20.00;99.90;;;;;;5065381;28;20045;-75
2022/08/13 06:11:34;;;;;;;12.85;3.00;;;20.10;99.90;;;;;;5080894;28;20037;-72
2022/08/13 06:14:00;;;;;;;6.55;2.88;;;20.20;99.90;;;;;;5081455;28;20071;-75
2022/08/13 06:16:30;;;;;;;11.40;2.75;;;20.20;99.90;;;;;;5081133;28;20028;-74
2022/08/13 06:18:59;;;;;;;5.75;2.65;;;20.30;99.90;;;;;;5080880;28;20119;-75
2022/08/13 06:21:26;;;;;;;11.68;2.63;;;20.30;99.90;;;;;;5080475;28;20056;-74
2022/08/13 06:23:52;;;;;;;6.40;2.58;;;20.40;99.90;;;;;;5078505;28;20082;-74
2022/08/13 06:26:20;;;;;;;7.15;3.05;;;20.50;99.90;;;;;;5083350;28;20052;-74
2022/08/13 06:28:53;;;;;;;6.53;2.60;;;20.60;99.90;;;;;;5067604;28;20055;-74
2022/08/13 06:31:25;;;;;;;7.43;3.05;;;20.70;99.90;;;;;;5059657;28;20064;-74
2022/08/13 06:33:55;;;;;;;9.15;3.10;;;20.80;99.90;;;;;;5083113;28;20115;-74
2022/08/13 06:36:24;;;;;;;9.43;2.88;;;20.90;99.90;;;;;;5079515;28;21526;-75
2022/08/13 06:38:50;;;;;;;4.43;2.80;;;20.90;99.90;;;;;;5057707;28;20448;-75
2022/08/13 06:41:18;;;;;;;9.88;2.85;;;21.00;99.90;;;;;;5066357;28;20051;-75
2022/08/13 06:43:50;;;;;;;3.88;2.30;;;21.10;99.90;;;;;;5079021;28;20072;-74
2022/08/13 06:46:20;;;;;;;11.82;3.20;;;21.10;99.90;;;;;;5059644;28;20072;-74
2022/08/13 06:48:46;;;;;;;6.18;2.58;;;21.10;99.90;;;;;;5079464;28;20127;-74
2022/08/13 06:51:13;;;;;;;3.78;2.10;;;21.20;99.90;;;;;;5079822;28;20113;-72
2022/08/13 06:53:42;;;;;;;5.97;2.40;;;21.20;99.90;;;;;;5060335;28;20171;-74
2022/08/13 06:56:13;;;;;;;8.40;2.50;;;21.30;99.90;;;;;;5062569;28;20056;-74
2022/08/13 06:58:42;;;;;;;5.93;2.33;;;21.30;99.90;;;;;;5073356;28;20128;-73
2022/08/13 07:01:09;;;;;;;6.50;2.28;;;21.40;99.90;;;;;;5071203;28;20155;-74
2022/08/13 07:03:35;;;;;;;9.15;2.20;;;21.40;99.90;;;;;;5071377;28;20040;-74
2022/08/13 07:06:02;;;;;;;3.78;2.40;;;21.50;99.90;;;;;;5081305;28;20066;-75
2022/08/13 07:08:29;;;;;;;6.80;2.30;;;21.50;99.90;;;;;;5066838;28;20461;-76
2022/08/13 07:13:46;;;;;;;5.13;2.20;;;21.70;99.90;;;;;;5081248;28;20138;-76
2022/08/13 07:16:16;;;;;;;4.22;2.10;;;21.80;99.90;;;;;;5082952;28;20054;-77
2022/08/13 07:18:46;;;;;;;7.03;1.90;;;21.90;99.90;;;;;;5084608;28;20052;-76
2022/08/13 07:21:14;;;;;;;3.55;2.20;;;22.00;99.90;;;;;;5080708;28;20099;-74
2022/08/13 07:23:41;;;;;;;9.60;2.28;;;22.20;99.90;;;;;;5076422;28;20095;-75
2022/08/13 07:26:09;;;;;;;9.93;2.22;;;22.40;99.90;;;;;;5076527;28;20040;-75
2022/08/13 07:28:35;;;;;;;4.32;1.90;;;22.50;99.90;;;;;;5078955;28;20071;-75
2022/08/13 07:31:06;;;;;;;6.70;1.85;;;22.50;99.90;;;;;;5079848;28;20393;-74
2022/08/13 07:33:35;;;;;;;8.90;1.88;;;22.60;99.90;;;;;;5085921;28;20060;-75
2022/08/13 07:36:08;;;;;;;4.82;1.98;;;22.70;99.90;;;;;;5077088;28;20391;-74
2022/08/13 07:38:34;;;;;;;4.50;1.90;;;22.80;99.90;;;;;;5086778;28;20071;-75
2022/08/13 07:41:05;;;;;;;8.35;1.80;;;22.90;99.90;;;;;;5064963;28;20371;-76
2022/08/13 07:43:36;;;;;;;8.93;1.80;;;22.90;99.90;;;;;;5077179;28;20075;-74
2022/08/13 07:46:10;;;;;;;5.53;1.67;;;23.10;99.80;;;;;;5079669;28;20094;-76
2022/08/13 07:48:37;;;;;;;5.32;1.90;;;23.20;99.40;;;;;;5065111;28;20093;-76
2022/08/13 07:51:06;;;;;;;4.85;1.73;;;23.30;99.50;;;;;;5078910;28;20055;-75
2022/08/13 07:53:37;;;;;;;8.00;1.80;;;23.50;98.90;;;;;;5077076;28;20348;-75
2022/08/13 07:56:06;;;;;;;10.35;1.70;;;23.50;98.60;;;;;;5077119;28;20359;-76
2022/08/13 07:58:34;;;;;;;2.85;1.60;;;23.70;98.20;;;;;;5063005;28;20036;-75
2022/08/13 08:01:04;;;;;;;5.47;1.70;;;23.80;98.30;;;;;;5077406;28;20036;-76
2022/08/13 08:03:40;;;;;;;8.57;1.85;;;24.00;98.00;;;;;;5076397;28;20063;-75
2022/08/13 08:06:09;;;;;;;2.85;1.88;;;24.00;98.20;;;;;;5062259;28;20149;-75
2022/08/13 08:08:36;;;;;;;8.10;1.70;;;24.10;98.20;;;;;;5080258;28;20113;-75
2022/08/13 08:11:02;;;;;;;5.35;1.60;;;24.20;98.20;;;;;;5060954;28;20052;-76
2022/08/13 08:13:32;;;;;;;6.95;1.60;;;24.30;97.80;;;;;;5077896;28;20677;-75
2022/08/13 08:16:01;;;;;;;3.95;1.55;;;24.50;97.50;;;;;;5070035;28;20047;-74
2022/08/13 08:18:27;;;;;;;4.22;1.73;;;24.60;96.90;;;;;;5064120;28;20040;-75
2022/08/13 08:21:04;;;;;;;5.40;1.77;;;24.80;97.00;;;;;;5076030;28;20036;-75
2022/08/13 08:23:35;;;;;;;4.07;1.67;;;24.80;96.80;;;;;;5066130;28;20139;-75
2022/08/13 08:26:07;;;;;;;5.00;1.88;;;24.90;96.80;;;;;;5071933;28;20048;-75
2022/08/13 08:28:34;;;;;;;4.10;1.60;;;24.90;96.80;;;;;;5057910;28;20066;-74
2022/08/13 08:31:00;;;;;;;4.05;1.52;;;25.10;97.10;;;;;;5070876;28;20052;-77
2022/08/13 08:33:26;;;;;;;6.40;1.40;;;25.10;97.00;;;;;;5072042;28;20098;-76
2022/08/13 08:35:54;;;;;;;7.90;1.50;;;25.30;96.60;;;;;;5073279;28;20078;-76
2022/08/13 08:43:53;;;;;;;5.68;1.33;;;25.50;95.20;;;;;;5079647;28;20433;-75
2022/08/13 08:46:22;;;;;;;3.35;1.52;;;25.70;95.40;;;;;;5061246;28;20460;-75
2022/08/13 08:48:48;;;;;;;7.05;1.30;;;25.80;95.60;;;;;;5063357;28;20307;-76
2022/08/13 08:51:18;;;;;;;8.93;1.42;;;25.80;96.00;;;;;;5084696;28;20060;-74
2022/08/13 08:53:44;;;;;;;7.80;1.30;;;25.80;95.80;;;;;;5087748;28;20048;-74
2022/08/13 08:56:11;;;;;;;2.72;1.38;;;26.00;95.50;;;;;;5062863;28;20363;-74
2022/08/13 08:58:41;;;;;;;4.40;1.30;;;26.20;95.30;;;;;;5073692;28;20118;-75
2022/08/13 09:01:13;;;;;;;6.40;1.35;;;26.20;95.20;;;;;;5056583;28;20046;-76
2022/08/13 09:03:42;;;;;;;6.43;1.42;;;26.40;94.30;;;;;;5074147;28;20401;-75
2022/08/13 09:06:11;;;;;;;5.57;1.42;;;26.50;94.60;;;;;;5064388;28;20063;-76
2022/08/13 09:08:38;;;;;;;7.38;1.38;;;26.50;95.00;;;;;;5080707;28;20047;-75
2022/08/13 09:11:05;;;;;;;3.22;1.20;;;26.50;94.50;;;;;;5058015;28;20140;-73
2022/08/13 09:13:32;;;;;;;4.70;1.40;;;26.70;94.40;;;;;;5068066;28;20082;-73
2022/08/13 09:16:02;;;;;;;3.55;1.40;;;26.90;93.10;;;;;;5066660;28;20123;-73
2022/08/13 09:18:29;;;;;;;2.58;1.33;;;27.00;93.30;;;;;;5077314;28;20076;-72
2022/08/13 09:20:55;;;;;;;5.90;1.30;;;27.00;93.10;;;;;;5077436;28;20043;-74
2022/08/13 09:23:21;;;;;;;3.70;1.10;;;27.00;93.50;;;;;;5081186;28;20051;-72
2022/08/13 09:25:51;;;;;;;6.63;1.52;;;27.20;93.40;;;;;;5076698;28;20463;-73
2022/08/13 09:28:26;;;;;;;3.33;1.30;;;27.20;93.60;;;;;;5077511;28;20051;-74
2022/08/13 09:30:53;;;;;;;5.15;1.23;;;27.40;93.60;;;;;;5066725;28;20055;-73
2022/08/13 09:33:21;;;;;;;1.60;1.20;;;27.50;93.30;;;;;;5075612;28;20143;-73
2022/08/13 09:35:48;;;;;;;3.60;1.30;;;27.60;92.80;;;;;;5058834;28;20129;-74
2022/08/13 09:38:15;;;;;;;3.38;1.10;;;27.60;92.80;;;;;;5068982;28;21386;-74
2022/08/13 09:41:24;;;;;;;4.97;1.20;;;27.70;92.90;;;;;;5075140;28;20101;-73
2022/08/13 09:43:50;;;;;;;4.00;1.20;;;27.80;92.70;;;;;;5060934;28;20044;-75
2022/08/13 09:46:17;;;;;;;6.50;1.30;;;27.90;92.50;;;;;;5073207;28;20059;-75
2022/08/13 09:48:44;;;;;;;4.15;1.20;;;28.00;92.40;;;;;;5078134;28;20049;-76
2022/08/13 09:51:13;;;;;;;4.40;1.20;;;28.00;92.00;;;;;;5063961;28;20063;-76
2022/08/13 09:53:40;;;;;;;5.80;1.33;;;28.30;92.30;;;;;;5075792;28;20060;-75
2022/08/13 09:56:06;;;;;;;5.00;1.40;;;28.30;90.50;;;;;;5070605;28;20454;-75
2022/08/13 09:58:32;;;;;;;5.57;1.25;;;28.50;90.40;;;;;;5071262;28;20339;-75
2022/08/13 10:00:58;;;;;;;7.72;1.92;;;28.50;90.20;;;;;;5077458;28;20048;-75
2022/08/13 10:03:24;;;;;;;8.90;1.50;;;28.60;90.90;;;;;;5077344;28;20037;-74
2022/08/13 10:05:51;;;;;;;4.30;1.20;;;28.80;90.90;;;;;;5080633;28;20051;-75
2022/08/13 10:08:18;;;;;;;5.85;1.33;;;28.90;91.10;;;;;;5078000;28;20040;-74
2022/08/13 10:10:46;;;;;;;4.03;1.20;;;29.00;90.30;;;;;;5086748;28;20376;-75
2022/08/13 10:13:13;;;;;;;4.35;1.13;;;29.10;89.20;;;;;;5074223;28;20750;-74
2022/08/13 10:15:39;;;;;;;4.32;1.25;;;29.30;89.90;;;;;;5087217;28;20036;-76
2022/08/13 10:18:05;;;;;;;4.85;1.25;;;29.30;88.20;;;;;;5078731;28;20149;-75
2022/08/13 10:20:36;;;;;;;6.22;1.20;;;29.40;88.90;;;;;;5072406;28;20473;-75
2022/08/13 10:23:05;;;;;;;1.92;1.20;;;29.50;88.50;;;;;;5070627;28;20139;-75
2022/08/13 10:25:34;;;;;;;1.77;1.35;;;29.70;89.10;;;;;;5079030;28;20044;-74
2022/08/13 10:27:59;;;;;;;4.28;1.20;;;29.90;88.10;;;;;;5060727;28;20044;-75
2022/08/13 10:30:27;;;;;;;2.53;1.20;;;29.90;87.50;;;;;;5078883;28;20059;-74
2022/08/13 10:32:55;;;;;;;5.88;1.40;;;30.10;86.80;;;;;;5070074;28;20432;-76
2022/08/13 10:35:25;;;;;;;4.22;1.30;;;30.10;86.00;;;;;;5072612;28;20048;-76
2022/08/13 10:37:54;;;;;;;5.07;1.20;;;30.20;85.90;;;;;;5075783;28;20169;-78
2022/08/13 10:40:20;;;;;;;2.55;1.20;;;30.40;86.00;;;;;;5075091;28;20078;-75
2022/08/13 10:42:46;;;;;;;1.90;1.20;;;30.50;87.50;;;;;;5059830;28;20516;-75
2022/08/13 10:45:13;;;;;;;2.15;1.02;;;30.40;85.00;;;;;;5082069;28;20523;-75
2022/08/13 10:47:50;;;;;;;6.60;1.27;;;30.80;86.00;;;;;;5065580;28;20071;-75
2022/08/13 10:50:22;;;;;;;2.70;0.90;;;30.90;86.10;;;;;;5087049;28;20036;-74
2022/08/13 10:52:48;;;;;;;3.78;1.10;;;31.10;85.40;;;;;;5079506;28;20153;-76
2022/08/13 10:55:15;;;;;;;4.47;1.20;;;31.40;85.40;;;;;;5064876;28;20044;-76
2022/08/13 10:57:44;;;;;;;1.88;1.00;;;31.40;84.70;;;;;;5078582;28;20131;-75
2022/08/13 11:00:12;;;;;;;11.10;1.48;;;31.70;84.50;;;;;;5079053;28;20055;-76
2022/08/13 11:02:38;;;;;;;1.90;1.02;;;31.70;84.60;;;;;;5071680;28;20059;-75
2022/08/13 11:05:06;;;;;;;4.22;1.20;;;31.90;83.20;;;;;;5079115;28;20488;-76
2022/08/13 11:07:34;;;;;;;3.25;1.15;;;31.80;82.70;;;;;;5078548;28;20048;-76
2022/08/13 11:10:08;;;;;;;3.35;1.15;;;32.00;82.10;;;;;;5080721;28;20041;-76
2022/08/13 11:12:35;;;;;;;;;;;32.20;83.20;;;;;;5085649;28;20036;-75
2022/08/13 11:15:03;;;;;;;4.22;1.48;;;32.30;83.70;;;;;;5084112;28;19977;-75
2022/08/13 11:17:29;;;;;;;4.65;1.20;;;32.30;81.20;;;;;;5083908;28;20109;-75
2022/08/13 11:19:55;;;;;;;3.55;1.10;;;32.70;82.60;;;;;;5063176;28;20052;-77
2022/08/13 11:22:28;;;;;;;3.05;1.13;;;32.80;82.40;;;;;;5065949;28;20138;-75
2022/08/13 11:24:59;;;;;;;1.35;1.05;;;33.00;81.70;;;;;;5083964;28;20060;-76
2022/08/13 11:31:05;;;;;;;4.50;1.20;;;33.10;79.00;;;;;;5093163;28;20039;-73
2022/08/13 11:33:31;;;;;;;1.83;1.13;;;33.30;79.80;;;;;;5068555;28;20049;-74
2022/08/13 11:35:57;;;;;;;8.50;1.10;;;33.40;80.00;;;;;;5083331;28;20078;-74
2022/08/13 11:38:23;;;;;;;3.72;1.25;;;33.50;80.00;;;;;;5078557;28;20055;-74
2022/08/13 11:40:54;;;;;;;2.35;1.02;;;33.40;78.70;;;;;;5083069;28;20518;-74
2022/08/13 11:43:26;;;;;;;4.72;1.20;;;33.30;78.50;;;;;;5077992;28;20048;-74
2022/08/13 11:45:51;;;;;;;3.67;1.02;;;33.20;76.90;;;;;;5082495;28;20127;-75
2022/08/13 11:48:18;;;;;;;1.40;1.13;;;33.30;77.90;;;;;;5062996;28;20108;-74
2022/08/13 11:50:44;;;;;;;2.55;1.10;;;33.50;77.90;;;;;;5065356;28;20938;-74
2022/08/13 11:53:10;;;;;;;2.78;0.90;;;33.70;77.50;;;;;;5082851;28;20121;-75
2022/08/13 11:55:36;;;;;;;1.52;1.10;;;33.90;78.50;;;;;;5062296;28;20060;-75
2022/08/13 11:58:07;;;;;;;1.10;1.00;;;34.10;77.50;;;;;;5067506;28;20040;-74
2022/08/13 12:00:35;;;;;;;3.95;1.00;;;34.10;76.60;;;;;;5083550;28;20051;-76
2022/08/13 12:03:01;;;;;;;4.63;1.20;;;34.30;77.20;;;;;;5083790;28;20542;-75
2022/08/13 12:05:30;;;;;;;4.95;1.00;;;34.70;75.60;;;;;;5063353;28;20051;-74
2022/08/13 12:07:55;;;;;;;2.15;0.90;;;34.70;74.60;;;;;;5082498;28;20102;-75
2022/08/13 12:10:22;;;;;;;3.38;0.90;;;34.50;73.80;;;;;;5056916;28;20127;-75
2022/08/13 12:12:48;;;;;;;4.60;1.10;;;34.50;73.50;;;;;;5078002;28;20122;-75
2022/08/13 12:15:15;;;;;;;3.90;1.10;;;34.40;74.40;;;;;;5079579;28;20297;-74
2022/08/13 12:17:47;;;;;;;5.20;1.13;;;34.40;74.40;;;;;;5078205;28;20102;-75
2022/08/13 12:20:19;;;;;;;4.88;1.30;;;34.40;74.20;;;;;;5062113;28;20074;-75
2022/08/13 12:22:44;;;;;;;3.80;1.13;;;34.80;75.40;;;;;;5079315;28;20479;-75
2022/08/13 12:25:11;;;;;;;4.60;1.10;;;34.80;74.60;;;;;;5080626;28;20155;-76
2022/08/13 12:27:39;;;;;;;2.75;1.10;;;34.60;71.80;;;;;;5080242;28;20052;-75
2022/08/13 12:30:05;;;;;;;2.28;1.20;;;34.80;72.10;;;;;;5065084;28;20040;-76
2022/08/13 12:32:33;;;;;;;1.42;1.00;;;35.00;73.70;;;;;;5067807;28;20606;-75
2022/08/13 12:34:58;;;;;;;1.83;1.13;;;35.10;73.30;;;;;;5069403;28;20063;-76
2022/08/13 12:37:24;;;;;;;3.95;1.20;;;34.80;72.30;;;;;;5082297;28;20035;-75
2022/08/13 12:39:59;;;;;;;2.10;0.90;;;35.00;71.20;;;;;;5082634;28;20382;-76
2022/08/13 12:42:27;;;;;;;2.15;1.02;;;35.20;71.60;;;;;;5082234;28;20487;-75
2022/08/13 12:44:53;;;;;;;2.47;0.95;;;35.40;72.60;;;;;;5080742;28;20048;-75
2022/08/13 12:47:19;;;;;;;7.10;1.27;;;35.50;72.00;;;;;;5074762;28;20102;-75
2022/08/13 12:49:45;;;;;;;1.20;1.10;;;35.60;71.00;;;;;;5085965;28;20032;-75
2022/08/13 12:52:10;;;;;;;4.03;1.10;;;35.80;71.20;;;;;;5078903;28;20083;-75
2022/08/13 12:54:36;;;;;;;5.55;1.00;;;35.60;70.30;;;;;;5073594;28;20406;-76
2022/08/13 12:57:02;;;;;;;1.38;0.98;;;36.10;71.30;;;;;;5073123;28;20510;-77
2022/08/13 12:59:27;;;;;;;3.40;1.00;;;36.20;70.80;;;;;;5074011;28;20080;-76
2022/08/13 13:01:53;;;;;;;3.42;1.20;;;36.10;70.30;;;;;;5075127;28;20058;-75
2022/08/13 13:04:25;;;;;;;5.10;1.70;;;36.50;71.40;;;;;;5077606;28;20205;-76
2022/08/13 13:06:52;;;;;;;4.50;1.20;;;36.40;69.70;;;;;;5075395;28;20407;-76
2022/08/13 13:09:19;;;;;;;1.85;1.10;;;36.10;69.60;;;;;;5081161;28;20044;-75
2022/08/13 13:11:45;;;;;;;1.77;1.20;;;36.50;69.90;;;;;;5057579;28;20131;-75
2022/08/13 13:14:11;;;;;;;1.80;0.98;;;36.50;70.10;;;;;;5058381;28;20086;-75
2022/08/13 13:16:38;;;;;;;2.00;1.10;;;36.60;69.60;;;;;;5076610;28;20491;-76